createdAt,value
2018-06-19T00:00:31.431Z,100.00
2018-06-19T00:03:00.571Z,100.00
2018-06-19T00:05:30.838Z,100.00
2018-06-19T00:08:01.402Z,100.00
2018-06-19T00:10:30.687Z,100.00
2018-06-19T00:12:59.405Z,100.00
2018-06-19T00:15:28.183Z,100.00
2018-06-19T00:18:02.122Z,100.00
2018-06-19T00:20:30.965Z,100.00
2018-06-19T00:22:59.693Z,100.00
2018-06-19T00:25:28.416Z,100.00
2018-06-19T00:27:57.246Z,100.00
2018-06-19T00:30:25.980Z,100.00
2018-06-19T00:32:54.722Z,100.00
2018-06-19T00:35:23.470Z,100.00
2018-06-19T00:37:52.225Z,100.00
2018-06-19T00:40:20.954Z,100.00
2018-06-19T00:42:49.681Z,100.00
2018-06-19T00:45:18.412Z,100.00
2018-06-19T00:47:47.158Z,100.00
2018-06-19T00:50:15.889Z,100.00
2018-06-19T00:52:44.642Z,100.00
2018-06-19T00:55:13.394Z,100.00
2018-06-19T00:57:42.133Z,100.00
2018-06-19T01:00:10.865Z,100.00
2018-06-19T01:02:39.595Z,100.00
2018-06-19T01:05:08.371Z,100.00
2018-06-19T01:07:37.105Z,100.00
2018-06-19T01:10:05.834Z,100.00
2018-06-19T01:12:34.561Z,100.00
2018-06-19T01:15:03.313Z,100.00
2018-06-19T01:17:32.037Z,100.00
2018-06-19T01:20:00.728Z,100.00
2018-06-19T01:22:29.465Z,100.00
2018-06-19T01:24:58.166Z,100.00
2018-06-19T01:27:26.902Z,100.00
2018-06-19T01:29:55.612Z,100.00
2018-06-19T01:32:24.317Z,100.00
2018-06-19T01:34:53.072Z,100.00
2018-06-19T01:37:21.799Z,100.00
2018-06-19T01:39:50.548Z,100.00
2018-06-19T01:42:19.256Z,100.00
2018-06-19T01:44:48.134Z,100.00
2018-06-19T01:47:16.845Z,100.00
2018-06-19T01:49:45.541Z,100.00
2018-06-19T01:52:14.287Z,100.00
2018-06-19T01:54:43.004Z,100.00
2018-06-19T01:57:11.765Z,100.00
2018-06-19T01:59:40.657Z,100.00
2018-06-19T02:02:09.385Z,100.00
2018-06-19T02:04:38.281Z,100.00
2018-06-19T02:07:07.150Z,100.00
2018-06-19T02:09:35.858Z,100.00
2018-06-19T02:12:04.564Z,100.00
2018-06-19T02:14:33.286Z,100.00
2018-06-19T02:17:02.144Z,100.00
2018-06-19T02:19:30.845Z,100.00
2018-06-19T02:21:59.566Z,100.00
2018-06-19T02:24:28.305Z,100.00
2018-06-19T02:26:57.037Z,100.00
2018-06-19T02:29:25.822Z,100.00
2018-06-19T02:31:54.573Z,100.00
2018-06-19T02:34:23.320Z,100.00
2018-06-19T02:36:52.040Z,100.00
2018-06-19T02:39:20.749Z,100.00
2018-06-19T02:41:49.523Z,100.00
2018-06-19T02:44:18.250Z,100.00
2018-06-19T02:46:47.041Z,100.00
2018-06-19T02:49:15.810Z,100.00
2018-06-19T02:51:44.707Z,100.00
2018-06-19T02:54:13.485Z,100.00
2018-06-19T02:56:42.237Z,100.00
2018-06-19T02:59:10.950Z,100.00
2018-06-19T03:01:39.739Z,100.00
2018-06-19T03:04:08.462Z,100.00
2018-06-19T03:06:37.214Z,100.00
2018-06-19T03:09:08.397Z,100.00
2018-06-19T03:11:37.248Z,100.00
2018-06-19T03:14:06.324Z,100.00
2018-06-19T03:16:35.041Z,100.00
2018-06-19T03:19:04.019Z,100.00
2018-06-19T03:21:33.066Z,100.00
2018-06-19T03:24:01.787Z,100.00
2018-06-19T03:26:30.458Z,100.00
2018-06-19T03:28:59.145Z,100.00
2018-06-19T03:31:27.840Z,100.00
2018-06-19T03:33:56.567Z,100.00
2018-06-19T03:36:30.509Z,100.00
2018-06-19T03:38:59.234Z,100.00
2018-06-19T03:41:27.955Z,100.00
2018-06-19T03:43:56.675Z,100.00
2018-06-19T03:46:25.401Z,100.00
2018-06-19T03:48:54.147Z,100.00
2018-06-19T03:51:22.845Z,100.00
2018-06-19T03:53:51.659Z,100.00
2018-06-19T03:56:20.358Z,100.00
2018-06-19T03:58:49.169Z,98.88
2018-06-19T04:01:18.198Z,99.45
2018-06-19T04:03:46.889Z,97.84
2018-06-19T04:06:15.602Z,96.94
2018-06-19T04:08:44.286Z,95.45
2018-06-19T04:11:13.016Z,95.16
2018-06-19T04:13:41.748Z,93.46
2018-06-19T04:16:10.470Z,89.94
2018-06-19T04:18:39.205Z,86.40
2018-06-19T04:21:07.925Z,85.06
2018-06-19T04:23:36.717Z,84.48
2018-06-19T04:26:05.610Z,82.47
2018-06-19T04:28:34.320Z,80.86
2018-06-19T04:31:03.193Z,81.52
2018-06-19T04:33:31.931Z,83.70
2018-06-19T04:36:00.691Z,84.92
2018-06-19T04:38:29.403Z,86.17
2018-06-19T04:40:58.121Z,89.31
2018-06-19T04:43:26.856Z,89.97
2018-06-19T04:45:55.571Z,85.57
2018-06-19T04:48:24.309Z,80.71
2018-06-19T04:50:53.068Z,81.43
2018-06-19T04:53:21.790Z,83.06
2018-06-19T04:55:50.795Z,84.65
2018-06-19T04:58:19.590Z,84.77
2018-06-19T05:00:48.297Z,85.25
2018-06-19T05:03:17.008Z,82.43
2018-06-19T05:05:45.774Z,81.02
2018-06-19T05:08:14.493Z,76.84
2018-06-19T05:10:43.246Z,68.62
2018-06-19T05:13:11.954Z,59.53
2018-06-19T05:15:40.671Z,52.08
2018-06-19T05:18:09.366Z,48.17
2018-06-19T05:20:38.133Z,43.94
2018-06-19T05:23:06.910Z,43.54
2018-06-19T05:25:35.640Z,41.42
2018-06-19T05:28:04.501Z,40.89
2018-06-19T05:30:33.267Z,38.52
2018-06-19T05:33:02.002Z,41.47
2018-06-19T05:35:30.717Z,42.54
2018-06-19T05:37:59.470Z,42.01
2018-06-19T05:40:28.279Z,41.92
2018-06-19T05:42:57.009Z,45.70
2018-06-19T05:45:25.893Z,43.05
2018-06-19T05:47:54.603Z,42.66
2018-06-19T05:50:23.356Z,43.43
2018-06-19T05:52:52.146Z,44.85
2018-06-19T05:55:20.890Z,45.78
2018-06-19T05:57:49.634Z,47.63
2018-06-19T06:00:18.343Z,48.22
2018-06-19T06:02:47.049Z,46.65
2018-06-19T06:05:15.794Z,41.77
2018-06-19T06:07:44.498Z,38.66
2018-06-19T06:10:13.297Z,36.25
2018-06-19T06:12:42.013Z,34.76
2018-06-19T06:15:10.713Z,33.57
2018-06-19T06:17:39.458Z,34.21
2018-06-19T06:20:08.248Z,32.68
2018-06-19T06:22:37.031Z,31.42
2018-06-19T06:25:05.766Z,33.29
2018-06-19T06:27:34.449Z,33.15
2018-06-19T06:30:03.162Z,33.53
2018-06-19T06:32:31.865Z,33.27
2018-06-19T06:35:00.564Z,31.16
2018-06-19T06:37:29.261Z,30.02
2018-06-19T06:39:58.153Z,30.99
2018-06-19T06:42:26.929Z,31.29
2018-06-19T06:44:55.677Z,30.08
2018-06-19T06:47:24.366Z,33.71
2018-06-19T06:49:53.129Z,36.98
2018-06-19T06:52:21.859Z,35.38
2018-06-19T06:54:50.558Z,41.10
2018-06-19T06:57:19.260Z,45.83
2018-06-19T06:59:47.963Z,49.13
2018-06-19T07:02:16.757Z,49.27
2018-06-19T07:04:45.453Z,47.07
2018-06-19T07:07:14.145Z,46.19
2018-06-19T07:09:42.832Z,48.04
2018-06-19T07:12:11.661Z,51.14
2018-06-19T07:14:40.373Z,51.48
2018-06-19T07:17:09.277Z,52.05
2018-06-19T07:19:38.081Z,52.74
2018-06-19T07:22:06.350Z,52.84
2018-06-19T07:24:35.047Z,55.88
2018-06-19T07:27:03.781Z,54.95
2018-06-19T07:29:32.486Z,54.47
2018-06-19T07:32:01.418Z,54.35
2018-06-19T07:34:30.167Z,56.48
2018-06-19T07:36:58.905Z,55.04
2018-06-19T07:39:27.666Z,55.64
2018-06-19T07:41:56.566Z,55.20
2018-06-19T07:44:25.357Z,54.80
2018-06-19T07:46:54.082Z,48.77
2018-06-19T07:49:23.249Z,44.47
2018-06-19T07:51:51.956Z,44.33
2018-06-19T07:54:20.683Z,45.21
2018-06-19T07:56:49.442Z,48.08
2018-06-19T07:59:18.154Z,44.68
2018-06-19T08:01:47.253Z,45.77
2018-06-19T08:04:15.986Z,49.53
2018-06-19T08:06:44.670Z,49.95
2018-06-19T08:09:13.486Z,51.53
2018-06-19T08:11:42.169Z,50.95
2018-06-19T08:14:10.888Z,52.23
2018-06-19T08:16:39.640Z,55.44
2018-06-19T08:19:08.358Z,54.54
2018-06-19T08:21:37.091Z,55.92
2018-06-19T08:24:05.798Z,55.45
2018-06-19T08:26:34.515Z,54.58
2018-06-19T08:29:03.255Z,54.87
2018-06-19T08:31:31.992Z,52.49
2018-06-19T08:34:00.678Z,48.49
2018-06-19T08:36:29.377Z,44.61
2018-06-19T08:38:58.074Z,42.18
2018-06-19T08:41:26.814Z,41.73
2018-06-19T08:43:55.501Z,43.91
2018-06-19T08:46:24.202Z,40.32
2018-06-19T08:48:52.904Z,43.62
2018-06-19T08:51:21.839Z,42.66
2018-06-19T08:53:50.614Z,44.11
2018-06-19T08:56:19.370Z,42.79
2018-06-19T08:58:48.079Z,42.38
2018-06-19T09:01:16.814Z,40.83
2018-06-19T09:03:45.534Z,39.17
2018-06-19T09:06:14.499Z,37.69
2018-06-19T09:08:43.234Z,36.53
2018-06-19T09:11:11.925Z,37.30
2018-06-19T09:13:40.629Z,40.99
2018-06-19T09:16:09.352Z,42.06
2018-06-19T09:18:38.312Z,44.21
2018-06-19T09:21:08.318Z,43.60
2018-06-19T09:23:37.427Z,44.67
2018-06-19T09:26:06.642Z,45.95
2018-06-19T09:28:35.471Z,47.07
2018-06-19T09:31:04.242Z,47.66
2018-06-19T09:33:32.988Z,40.50
2018-06-19T09:36:01.687Z,38.51
2018-06-19T09:38:30.511Z,39.48
2018-06-19T09:40:59.234Z,42.78
2018-06-19T09:43:27.954Z,41.19
2018-06-19T09:45:56.791Z,44.26
2018-06-19T09:48:25.518Z,41.97
2018-06-19T09:50:54.241Z,37.84
2018-06-19T09:53:23.013Z,38.21
2018-06-19T09:55:51.753Z,40.08
2018-06-19T09:58:20.493Z,40.16
2018-06-19T10:00:49.221Z,37.93
2018-06-19T10:03:17.912Z,38.09
2018-06-19T10:05:46.749Z,35.16
2018-06-19T10:08:15.449Z,35.19
2018-06-19T10:10:44.137Z,35.45
2018-06-19T10:13:12.833Z,35.97
2018-06-19T10:15:41.545Z,34.12
2018-06-19T10:18:10.237Z,30.87
2018-06-19T10:20:39.037Z,32.39
2018-06-19T10:23:07.887Z,32.75
2018-06-19T10:25:36.594Z,34.25
2018-06-19T10:28:05.396Z,33.51
2018-06-19T10:30:34.085Z,29.24
2018-06-19T10:33:02.902Z,28.22
2018-06-19T10:35:31.597Z,27.84
2018-06-19T10:38:00.291Z,32.60
2018-06-19T10:40:28.998Z,33.61
2018-06-19T10:42:57.710Z,38.02
2018-06-19T10:45:26.409Z,35.07
2018-06-19T10:47:55.149Z,36.25
2018-06-19T10:50:23.913Z,30.30
2018-06-19T10:52:52.625Z,32.09
2018-06-19T10:55:21.358Z,30.18
2018-06-19T10:57:50.053Z,29.36
2018-06-19T11:00:19.217Z,27.79
2018-06-19T11:02:48.404Z,28.17
2018-06-19T11:05:17.122Z,29.07
2018-06-19T11:07:45.856Z,29.06
2018-06-19T11:10:14.621Z,29.79
2018-06-19T11:12:43.897Z,33.72
2018-06-19T11:15:12.661Z,30.46
2018-06-19T11:17:41.412Z,30.32
2018-06-19T11:20:10.269Z,30.72
2018-06-19T11:22:39.160Z,29.59
2018-06-19T11:25:08.019Z,28.94
2018-06-19T11:27:36.737Z,30.70
2018-06-19T11:30:05.767Z,29.66
2018-06-19T11:32:34.465Z,31.79
2018-06-19T11:35:03.202Z,29.75
2018-06-19T11:37:31.901Z,30.57
2018-06-19T11:40:00.594Z,31.04
2018-06-19T11:42:29.301Z,29.32
2018-06-19T11:44:58.031Z,30.52
2018-06-19T11:47:26.822Z,34.59
2018-06-19T11:49:55.525Z,33.44
2018-06-19T11:52:24.283Z,34.83
2018-06-19T11:54:53.243Z,32.52
2018-06-19T11:57:21.955Z,31.78
2018-06-19T11:59:50.683Z,27.68
2018-06-19T12:02:19.463Z,25.86
2018-06-19T12:04:48.217Z,30.13
2018-06-19T12:07:16.942Z,27.89
2018-06-19T12:09:45.652Z,30.87
2018-06-19T12:12:14.390Z,31.19
2018-06-19T12:14:45.045Z,27.82
2018-06-19T12:17:14.813Z,30.28
2018-06-19T12:19:43.570Z,31.17
2018-06-19T12:22:12.274Z,32.91
2018-06-19T12:24:40.987Z,31.03
2018-06-19T12:27:09.678Z,32.20
2018-06-19T12:29:38.442Z,31.97
2018-06-19T12:32:07.155Z,32.73
2018-06-19T12:34:35.874Z,33.35
2018-06-19T12:37:04.567Z,36.67
2018-06-19T12:39:33.282Z,35.17
2018-06-19T12:42:02.022Z,39.08
2018-06-19T12:44:30.717Z,36.49
2018-06-19T12:46:59.433Z,37.60
2018-06-19T12:49:39.242Z,38.26
2018-06-19T12:52:19.868Z,37.78
2018-06-19T12:55:57.322Z,36.48
2018-06-19T12:58:26.021Z,33.88
2018-06-19T13:00:54.715Z,34.85
2018-06-19T13:03:34.473Z,37.50
2018-06-19T13:06:14.156Z,35.90
2018-06-19T13:08:42.873Z,35.08
2018-06-19T13:11:11.576Z,35.63
2018-06-19T13:13:51.371Z,35.08
2018-06-19T13:16:31.145Z,34.12
2018-06-19T13:19:10.970Z,33.61
2018-06-19T13:21:39.689Z,33.13
2018-06-19T13:24:08.432Z,33.36
2018-06-19T13:26:37.137Z,33.91
2018-06-19T13:29:45.253Z,32.43
2018-06-19T13:32:14.022Z,32.20
2018-06-19T13:34:42.799Z,33.07
2018-06-19T13:37:11.533Z,32.71
2018-06-19T13:39:40.853Z,34.27
2018-06-19T13:42:22.098Z,33.45
2018-06-19T13:44:59.968Z,34.30
2018-06-19T13:47:28.696Z,33.91
2018-06-19T13:49:57.406Z,34.38
2018-06-19T13:52:27.009Z,33.89
2018-06-19T13:56:08.002Z,34.23
2018-06-19T13:58:37.582Z,34.81
2018-06-19T14:01:06.699Z,34.21
2018-06-19T14:03:35.494Z,35.67
2018-06-19T14:06:04.196Z,35.00
2018-06-19T14:08:45.892Z,33.92
2018-06-19T14:11:25.947Z,34.07
2018-06-19T14:13:54.670Z,35.63
2018-06-19T14:16:23.391Z,33.94
2018-06-19T14:18:52.116Z,34.23
2018-06-19T14:21:20.881Z,36.25
2018-06-19T14:23:49.573Z,36.39
2018-06-19T14:26:18.273Z,36.68
2018-06-19T14:28:47.021Z,37.46
2018-06-19T14:31:15.742Z,37.55
2018-06-19T14:33:44.489Z,37.13
2018-06-19T14:36:13.197Z,35.06
2018-06-19T14:38:41.932Z,36.10
2018-06-19T14:41:10.654Z,33.84
2018-06-19T14:43:39.413Z,35.84
2018-06-19T14:46:08.133Z,36.31
2018-06-19T14:48:36.842Z,38.12
2018-06-19T14:51:05.701Z,36.74
2018-06-19T14:53:34.485Z,36.61
2018-06-19T14:56:03.310Z,38.49
2018-06-19T14:58:32.019Z,39.87
2018-06-19T15:01:00.800Z,38.51
2018-06-19T15:03:29.506Z,43.10
2018-06-19T15:05:58.429Z,44.09
2018-06-19T15:08:27.165Z,46.37
2018-06-19T15:10:55.924Z,48.68
2018-06-19T15:13:24.631Z,48.79
2018-06-19T15:15:53.351Z,49.72
2018-06-19T15:18:22.144Z,51.34
2018-06-19T15:20:50.924Z,50.70
2018-06-19T15:23:19.646Z,53.05
2018-06-19T15:25:48.371Z,52.97
2018-06-19T15:28:17.123Z,53.50
2018-06-19T15:30:45.872Z,55.86
2018-06-19T15:33:14.733Z,54.93
2018-06-19T15:35:43.446Z,55.66
2018-06-19T15:38:12.141Z,55.10
2018-06-19T15:40:40.861Z,56.95
2018-06-19T15:43:09.613Z,57.29
2018-06-19T15:45:38.343Z,57.44
2018-06-19T15:48:07.087Z,57.20
2018-06-19T15:50:35.788Z,56.76
2018-06-19T15:53:04.647Z,55.88
2018-06-19T15:55:33.361Z,56.21
2018-06-19T15:58:02.261Z,56.58
2018-06-19T16:00:31.107Z,58.09
2018-06-19T16:03:00.024Z,57.70
2018-06-19T16:05:28.822Z,58.51
2018-06-19T16:08:02.672Z,59.20
2018-06-19T16:10:31.539Z,58.02
2018-06-19T16:13:00.238Z,59.96
2018-06-19T16:15:28.982Z,58.65
2018-06-19T16:17:57.676Z,58.22
2018-06-19T16:20:26.423Z,57.34
2018-06-19T16:22:55.157Z,59.24
2018-06-19T16:25:23.869Z,56.40
2018-06-19T16:27:52.553Z,57.31
2018-06-19T16:30:21.271Z,56.55
2018-06-19T16:32:49.999Z,57.37
2018-06-19T16:35:18.750Z,56.78
2018-06-19T16:37:47.505Z,57.50
2018-06-19T16:40:16.282Z,58.09
2018-06-19T16:42:45.020Z,57.71
2018-06-19T16:45:13.734Z,57.76
2018-06-19T16:47:42.454Z,59.09
2018-06-19T16:50:11.185Z,59.67
2018-06-19T16:52:39.986Z,60.15
2018-06-19T16:55:08.722Z,60.26
2018-06-19T16:57:37.472Z,60.83
2018-06-19T17:00:07.163Z,62.54
2018-06-19T17:02:35.901Z,63.14
2018-06-19T17:05:04.613Z,64.10
2018-06-19T17:07:33.332Z,64.44
2018-06-19T17:10:02.038Z,65.34
2018-06-19T17:12:30.822Z,65.04
2018-06-19T17:14:59.538Z,65.77
2018-06-19T17:17:28.298Z,66.03
2018-06-19T17:19:57.275Z,66.21
2018-06-19T17:22:26.010Z,66.47
2018-06-19T17:24:54.727Z,67.91
2018-06-19T17:27:23.481Z,68.24
2018-06-19T17:29:52.166Z,68.82
2018-06-19T17:32:21.015Z,69.15
2018-06-19T17:34:49.725Z,69.51
2018-06-19T17:37:18.622Z,70.43
2018-06-19T17:39:47.346Z,72.65
2018-06-19T17:42:21.500Z,72.13
2018-06-19T17:44:50.355Z,73.58
2018-06-19T17:47:19.137Z,72.86
2018-06-19T17:49:47.829Z,74.36
2018-06-19T17:52:16.584Z,75.86
2018-06-19T17:54:45.416Z,76.16
2018-06-19T17:57:14.184Z,77.60
2018-06-19T17:59:43.530Z,79.16
2018-06-19T18:02:12.481Z,78.39
2018-06-19T18:04:41.423Z,79.67
2018-06-19T18:07:10.301Z,78.83
2018-06-19T18:09:39.071Z,80.39
2018-06-19T18:12:07.796Z,81.20
2018-06-19T18:14:36.514Z,83.10
2018-06-19T18:17:05.485Z,82.43
2018-06-19T18:19:34.571Z,83.65
2018-06-19T18:22:05.243Z,83.50
2018-06-19T18:24:37.170Z,83.20
2018-06-19T18:27:12.816Z,83.38
2018-06-19T18:29:48.137Z,83.59
2018-06-19T18:32:21.788Z,84.13
2018-06-19T18:34:56.264Z,84.81
2018-06-19T18:37:31.507Z,84.64
2018-06-19T18:40:00.938Z,85.17
2018-06-19T18:42:31.983Z,84.35
2018-06-19T18:45:01.371Z,84.08
2018-06-19T18:47:30.338Z,83.93
2018-06-19T18:49:59.208Z,84.72
2018-06-19T18:52:28.474Z,84.07
2018-06-19T18:54:57.363Z,84.07
2018-06-19T18:57:26.413Z,85.13
2018-06-19T18:59:55.550Z,85.48
2018-06-19T19:02:26.431Z,85.98
2018-06-19T19:04:55.578Z,86.04
2018-06-19T19:07:25.299Z,87.29
2018-06-19T19:10:00.686Z,87.58
2018-06-19T19:12:31.368Z,86.35
2018-06-19T19:15:06.697Z,85.83
2018-06-19T19:17:40.703Z,86.27
2018-06-19T19:20:10.253Z,87.54
2018-06-19T19:22:39.023Z,87.90
2018-06-19T19:25:07.811Z,89.53
2018-06-19T19:27:41.680Z,88.32
2018-06-19T19:30:10.994Z,88.82
2018-06-19T19:32:39.769Z,90.00
2018-06-19T19:35:08.525Z,90.07
2018-06-19T19:37:42.833Z,90.15
2018-06-19T19:40:12.018Z,90.83
2018-06-19T19:42:41.631Z,90.28
2018-06-19T19:45:11.625Z,89.96
2018-06-19T19:47:46.195Z,89.21
2018-06-19T19:50:15.115Z,89.33
2018-06-19T19:52:43.854Z,89.29
2018-06-19T19:55:12.603Z,89.58
2018-06-19T19:57:46.429Z,91.88
2018-06-19T20:00:19.269Z,91.38
2018-06-19T20:02:48.759Z,92.02
2018-06-19T20:05:17.475Z,92.39
2018-06-19T20:07:46.164Z,92.93
2018-06-19T20:10:15.131Z,93.63
2018-06-19T20:12:43.837Z,93.07
2018-06-19T20:15:13.374Z,94.49
2018-06-19T20:17:42.188Z,93.77
2018-06-19T20:20:11.863Z,92.86
2018-06-19T20:22:40.750Z,92.04
2018-06-19T20:25:09.909Z,92.65
2018-06-19T20:27:38.722Z,93.19
2018-06-19T20:30:08.579Z,93.10
2018-06-19T20:32:37.314Z,93.52
2018-06-19T20:35:06.068Z,95.41
2018-06-19T20:37:34.796Z,94.86
2018-06-19T20:40:03.542Z,95.42
2018-06-19T20:42:32.269Z,95.71
2018-06-19T20:45:01.202Z,96.03
2018-06-19T20:47:30.545Z,95.63
2018-06-19T20:49:59.599Z,95.73
2018-06-19T20:52:28.337Z,96.60
2018-06-19T20:54:57.087Z,96.81
2018-06-19T20:57:25.820Z,96.95
2018-06-19T20:59:54.553Z,97.54
2018-06-19T21:02:23.276Z,98.22
2018-06-19T21:04:52.050Z,97.77
2018-06-19T21:07:20.807Z,96.77
2018-06-19T21:09:49.524Z,96.63
2018-06-19T21:12:18.234Z,97.06
2018-06-19T21:14:46.968Z,97.50
2018-06-19T21:17:15.713Z,97.82
2018-06-19T21:19:44.439Z,98.46
2018-06-19T21:22:13.172Z,99.39
2018-06-19T21:24:41.895Z,99.22
2018-06-19T21:27:10.623Z,100.00
2018-06-19T21:29:39.357Z,100.00
2018-06-19T21:32:08.412Z,100.00
2018-06-19T21:34:37.190Z,100.00
2018-06-19T21:37:06.084Z,100.00
2018-06-19T21:39:34.819Z,100.00
2018-06-19T21:42:03.546Z,100.00
2018-06-19T21:44:32.269Z,100.00
2018-06-19T21:47:00.982Z,100.00
2018-06-19T21:49:29.718Z,100.00
2018-06-19T21:51:58.425Z,100.00
2018-06-19T21:54:27.164Z,100.00
2018-06-19T21:56:55.869Z,100.00
2018-06-19T21:59:24.575Z,100.00
2018-06-19T22:01:53.269Z,100.00
2018-06-19T22:04:21.961Z,100.00
2018-06-19T22:06:50.690Z,100.00
2018-06-19T22:09:19.405Z,100.00
2018-06-19T22:11:48.177Z,100.00
2018-06-19T22:14:16.917Z,100.00
2018-06-19T22:16:45.651Z,99.98
2018-06-19T22:19:14.353Z,100.00
2018-06-19T22:21:43.070Z,99.46
2018-06-19T22:24:11.794Z,99.03
2018-06-19T22:26:40.647Z,99.75
2018-06-19T22:29:09.333Z,100.00
2018-06-19T22:31:38.054Z,100.00
2018-06-19T22:34:06.798Z,100.00
2018-06-19T22:36:35.513Z,100.00
2018-06-19T22:39:05.957Z,100.00
2018-06-19T22:41:34.690Z,100.00
2018-06-19T22:44:03.440Z,100.00
2018-06-19T22:46:32.166Z,100.00
2018-06-19T22:49:01.062Z,100.00
2018-06-19T22:51:29.797Z,100.00
2018-06-19T22:53:58.535Z,100.00
2018-06-19T22:56:27.337Z,100.00
2018-06-19T22:58:56.073Z,100.00
2018-06-19T23:01:24.831Z,100.00
2018-06-19T23:03:53.602Z,100.00
2018-06-19T23:06:22.340Z,100.00
2018-06-19T23:08:51.187Z,100.00
2018-06-19T23:11:19.932Z,100.00
2018-06-19T23:13:48.634Z,100.00
2018-06-19T23:16:17.433Z,100.00
2018-06-19T23:18:46.157Z,100.00
2018-06-19T23:21:14.869Z,100.00
2018-06-19T23:23:43.565Z,100.00
2018-06-19T23:26:12.316Z,100.00
2018-06-19T23:28:41.054Z,100.00
2018-06-19T23:31:09.794Z,100.00
2018-06-19T23:33:38.603Z,100.00
2018-06-19T23:36:07.577Z,100.00
2018-06-19T23:38:36.402Z,100.00
2018-06-19T23:41:05.169Z,100.00
2018-06-19T23:43:33.881Z,100.00
2018-06-19T23:46:02.595Z,100.00
2018-06-19T23:48:31.300Z,100.00
2018-06-19T23:51:00.039Z,100.00
2018-06-19T23:53:28.770Z,100.00
2018-06-19T23:55:57.474Z,100.00
2018-06-19T23:58:26.223Z,100.00
